Time;durP1;ratioP1;P1;durP2;ratioP2;P2;SDS_P1;SDS_P2;PMS_P1;PMS_P2;Temp;Humidity;BMP_temperature;BMP_pressure;BME280_temperature;BME280_humidity;BME280_pressure;Samples;Min_cycle;Max_cycle;Signal;HPM_P1;HPM_P2
2021/01/24 00:02:18;;;;;;;6.78;5.88;;;1.20;99.90;;;;;;4870664;29;20406;-76
2021/01/24 00:04:44;;;;;;;8.00;6.85;;;1.20;99.90;;;;;;4864073;29;20463;-77
2021/01/24 00:07:10;;;;;;;8.43;6.93;;;1.20;99.90;;;;;;4843363;29;20416;-77
2021/01/24 00:09:36;;;;;;;7.10;6.40;;;1.20;99.90;;;;;;4843173;29;20499;-79
2021/01/24 00:12:02;;;;;;;8.23;6.13;;;1.10;99.90;;;;;;4825099;29;20937;-76
2021/01/24 00:14:28;;;;;;;6.90;6.20;;;1.30;99.90;;;;;;4856716;29;20462;-77
2021/01/24 00:16:53;;;;;;;8.18;6.30;;;1.40;99.90;;;;;;4833884;29;20481;-78
2021/01/24 00:19:19;;;;;;;6.90;5.70;;;1.30;99.90;;;;;;4854393;29;20436;-77
2021/01/24 00:21:45;;;;;;;8.77;5.90;;;1.30;99.90;;;;;;4826675;29;20422;-77
2021/01/24 00:24:11;;;;;;;6.43;5.23;;;1.30;99.90;;;;;;4853894;29;20410;-77
2021/01/24 00:26:36;;;;;;;6.63;5.47;;;1.30;99.90;;;;;;4862803;29;20961;-77
2021/01/24 00:29:02;;;;;;;6.73;4.90;;;1.30;99.90;;;;;;4853222;29;20458;-77
2021/01/24 00:31:28;;;;;;;5.97;4.80;;;1.30;99.90;;;;;;4844808;29;20417;-77
2021/01/24 00:33:54;;;;;;;4.93;4.43;;;1.30;99.90;;;;;;4854055;29;20416;-77
2021/01/24 00:36:20;;;;;;;4.03;3.63;;;1.30;99.90;;;;;;4856234;29;20404;-77
2021/01/24 00:38:47;;;;;;;4.10;3.70;;;1.30;99.90;;;;;;4836946;29;20551;-77
2021/01/24 00:41:13;;;;;;;5.03;4.05;;;1.30;99.90;;;;;;4855556;29;20405;-77
2021/01/24 00:43:38;;;;;;;3.50;3.20;;;1.30;99.90;;;;;;4841640;29;20427;-76
2021/01/24 00:46:04;;;;;;;3.73;3.23;;;1.30;99.90;;;;;;4839671;29;20762;-80
2021/01/24 00:48:36;;;;;;;3.30;3.00;;;1.30;99.90;;;;;;4840857;29;20429;-78
2021/01/24 00:51:05;;;;;;;3.00;2.70;;;1.30;99.90;;;;;;4858759;29;20461;-82
2021/01/24 00:53:36;;;;;;;3.20;2.90;;;1.30;99.90;;;;;;4857696;29;20782;-78
2021/01/24 00:56:02;;;;;;;2.92;2.63;;;1.40;99.90;;;;;;4847662;29;20476;-78
2021/01/24 00:58:27;;;;;;;6.03;2.90;;;1.40;99.90;;;;;;4830613;29;20405;-77
2021/01/24 01:00:53;;;;;;;3.37;3.07;;;1.40;99.90;;;;;;4840132;29;20420;-77
2021/01/24 01:03:19;;;;;;;3.00;2.78;;;1.40;99.90;;;;;;4863450;29;20482;-77
2021/01/24 01:05:46;;;;;;;3.00;2.80;;;1.30;99.90;;;;;;4869453;29;20423;-78
2021/01/24 01:08:11;;;;;;;3.80;3.45;;;1.30;99.90;;;;;;4855793;29;20907;-81
2021/01/24 01:10:37;;;;;;;7.95;4.68;;;1.30;99.90;;;;;;4868338;29;20417;-78
2021/01/24 01:13:03;;;;;;;6.95;5.03;;;1.40;99.90;;;;;;4835707;29;20414;-78
2021/01/24 01:15:29;;;;;;;6.40;5.80;;;1.40;99.90;;;;;;4876244;29;20942;-77
2021/01/24 01:17:54;;;;;;;6.23;5.47;;;1.40;99.90;;;;;;4842367;29;20454;-77
2021/01/24 01:20:20;;;;;;;6.78;5.85;;;1.50;99.90;;;;;;4855506;29;20476;-77
2021/01/24 01:22:46;;;;;;;7.70;6.00;;;1.50;99.90;;;;;;4855562;29;20407;-77
2021/01/24 01:25:12;;;;;;;8.67;6.40;;;1.50;99.90;;;;;;4871082;29;20432;-77
2021/01/24 01:27:37;;;;;;;7.10;5.97;;;1.50;99.90;;;;;;4842763;29;20420;-77
2021/01/24 01:30:05;;;;;;;5.43;4.90;;;1.50;99.90;;;;;;4870327;29;20408;-77
2021/01/24 01:32:31;;;;;;;6.70;5.95;;;1.50;99.90;;;;;;4840407;29;20973;-77
2021/01/24 01:34:56;;;;;;;7.05;6.07;;;1.60;99.90;;;;;;4850804;29;20411;-77
2021/01/24 01:37:22;;;;;;;6.10;5.50;;;1.50;99.90;;;;;;4843069;29;20906;-76
2021/01/24 01:39:48;;;;;;;6.40;5.80;;;1.50;99.90;;;;;;4836905;29;20421;-76
2021/01/24 01:42:14;;;;;;;6.70;5.90;;;1.50;99.90;;;;;;4839804;29;20409;-76
2021/01/24 01:44:41;;;;;;;6.13;5.53;;;1.50;99.90;;;;;;4821864;29;20425;-76
2021/01/24 01:47:07;;;;;;;6.57;5.75;;;1.60;99.90;;;;;;4852365;29;20415;-76
2021/01/24 01:49:32;;;;;;;7.00;5.82;;;1.60;99.90;;;;;;4855195;29;20415;-76
2021/01/24 01:51:58;;;;;;;6.03;5.38;;;1.70;99.90;;;;;;4844309;29;20466;-76
2021/01/24 01:54:24;;;;;;;6.60;5.90;;;1.70;99.90;;;;;;4867125;29;20415;-76
2021/01/24 01:56:50;;;;;;;6.23;5.47;;;1.80;99.90;;;;;;4847853;29;20794;-76
2021/01/24 01:59:16;;;;;;;7.50;5.90;;;1.70;99.90;;;;;;4837755;29;20562;-77
2021/01/24 02:01:53;;;;;;;7.75;5.75;;;1.60;99.90;;;;;;4854202;29;20432;-76
2021/01/24 02:04:40;;;;;;;7.53;5.75;;;1.60;99.90;;;;;;4854172;29;20962;-76
2021/01/24 02:07:11;;;;;;;7.00;5.68;;;1.60;99.90;;;;;;4852708;29;20898;-76
2021/01/24 02:09:40;;;;;;;7.23;6.13;;;1.60;99.90;;;;;;4853670;29;20869;-76
2021/01/24 02:12:25;;;;;;;6.63;6.00;;;1.60;99.90;;;;;;4855404;29;20429;-76
2021/01/24 02:15:07;;;;;;;6.07;5.15;;;1.60;99.90;;;;;;4865420;29;20447;-76
2021/01/24 02:17:36;;;;;;;6.55;5.50;;;1.60;99.90;;;;;;4849959;29;20434;-76
2021/01/24 02:20:06;;;;;;;7.30;5.95;;;1.60;99.90;;;;;;4848542;29;20503;-77
2021/01/24 02:22:33;;;;;;;7.22;6.07;;;1.60;99.90;;;;;;4839332;29;20436;-77
2021/01/24 02:25:40;;;;;;;8.02;6.35;;;1.60;99.90;;;;;;4856427;29;20657;-77
2021/01/24 02:28:20;;;;;;;7.47;5.88;;;1.50;99.90;;;;;;4849678;29;20436;-77
2021/01/24 02:30:46;;;;;;;6.32;5.55;;;1.50;99.90;;;;;;4842453;29;20418;-77
2021/01/24 02:33:23;;;;;;;6.75;5.45;;;1.40;99.90;;;;;;4844827;29;20412;-76
2021/01/24 02:35:54;;;;;;;7.18;5.85;;;1.40;99.90;;;;;;4860827;29;20406;-76
2021/01/24 02:38:19;;;;;;;6.20;5.53;;;1.40;99.90;;;;;;4849948;29;20519;-77
2021/01/24 02:40:45;;;;;;;6.00;5.40;;;1.40;99.90;;;;;;4861216;29;20471;-78
2021/01/24 02:43:11;;;;;;;6.68;5.97;;;1.40;99.90;;;;;;4860544;29;20413;-77
2021/01/24 02:45:40;;;;;;;6.43;5.68;;;1.50;99.90;;;;;;4829280;29;20831;-77
2021/01/24 02:48:07;;;;;;;6.53;5.50;;;1.40;99.90;;;;;;4844614;29;20428;-77
2021/01/24 02:50:32;;;;;;;6.50;5.45;;;1.40;99.90;;;;;;4857972;29;20504;-76
2021/01/24 02:52:58;;;;;;;7.53;5.47;;;1.40;99.90;;;;;;4846191;29;20438;-77
2021/01/24 02:55:24;;;;;;;5.80;5.13;;;1.50;99.90;;;;;;4853317;29;20486;-77
2021/01/24 02:57:50;;;;;;;6.93;5.25;;;1.50;99.90;;;;;;4843780;29;20465;-77
2021/01/24 03:00:16;;;;;;;5.63;5.03;;;1.50;99.90;;;;;;4842784;29;20451;-76
2021/01/24 03:02:42;;;;;;;5.95;5.35;;;1.50;99.90;;;;;;4857184;29;21381;-77
2021/01/24 03:05:09;;;;;;;7.03;5.82;;;1.50;99.90;;;;;;4841335;29;20461;-76
2021/01/24 03:07:34;;;;;;;6.75;5.30;;;1.40;99.90;;;;;;4873660;29;20503;-77
2021/01/24 03:10:00;;;;;;;5.93;5.32;;;1.40;99.90;;;;;;4839902;29;20531;-76
2021/01/24 03:12:29;;;;;;;6.27;5.40;;;1.40;99.90;;;;;;4842440;29;20412;-77
2021/01/24 03:14:54;;;;;;;6.13;5.50;;;1.40;99.90;;;;;;4862601;29;20769;-77
2021/01/24 03:17:20;;;;;;;6.88;5.90;;;1.40;99.90;;;;;;4860280;29;20409;-79
2021/01/24 03:19:46;;;;;;;7.82;5.57;;;1.40;99.90;;;;;;4841379;29;20432;-77
2021/01/24 03:22:12;;;;;;;7.07;5.57;;;1.40;99.90;;;;;;4857108;29;20416;-74
2021/01/24 03:24:38;;;;;;;7.70;5.32;;;1.40;99.90;;;;;;4856468;29;20967;-75
2021/01/24 03:27:03;;;;;;;5.93;5.18;;;1.40;99.90;;;;;;4864825;29;20405;-78
2021/01/24 03:29:29;;;;;;;5.15;4.60;;;1.30;99.90;;;;;;4840349;29;20411;-78
2021/01/24 03:31:55;;;;;;;6.13;5.53;;;1.30;99.90;;;;;;4840568;29;20413;-78
2021/01/24 03:34:22;;;;;;;6.85;5.18;;;1.20;99.90;;;;;;4848729;29;20442;-78
2021/01/24 03:36:51;;;;;;;5.45;4.95;;;1.20;99.90;;;;;;4842688;29;20438;-82
2021/01/24 03:39:17;;;;;;;6.22;5.63;;;1.20;99.90;;;;;;4845169;29;20448;-79
2021/01/24 03:41:43;;;;;;;6.20;5.00;;;1.20;99.90;;;;;;4846941;29;20481;-81
2021/01/24 03:44:08;;;;;;;6.47;4.95;;;1.20;99.90;;;;;;4845660;29;20413;-81
2021/01/24 03:46:34;;;;;;;5.60;4.70;;;1.20;99.90;;;;;;4830919;29;20403;-80
2021/01/24 03:49:01;;;;;;;6.33;5.20;;;1.10;99.90;;;;;;4830690;29;20936;-81
2021/01/24 03:51:27;;;;;;;6.07;5.38;;;1.20;99.90;;;;;;4829691;29;20405;-80
2021/01/24 03:53:52;;;;;;;6.30;5.07;;;1.20;99.90;;;;;;4833368;29;20399;-80
2021/01/24 03:56:18;;;;;;;5.50;4.07;;;1.20;99.90;;;;;;4863206;29;20394;-80
2021/01/24 03:58:44;;;;;;;5.03;4.53;;;1.20;99.90;;;;;;4879630;29;20777;-84
2021/01/24 04:01:10;;;;;;;6.93;4.68;;;1.20;99.90;;;;;;4863577;29;20441;-80
2021/01/24 04:03:35;;;;;;;6.57;5.20;;;1.30;99.90;;;;;;4864415;29;20437;-79
2021/01/24 04:06:01;;;;;;;5.10;4.57;;;1.20;99.90;;;;;;4862033;29;20426;-79
2021/01/24 04:08:26;;;;;;;5.38;4.40;;;1.20;99.90;;;;;;4864042;29;20420;-85
2021/01/24 04:10:52;;;;;;;5.20;4.70;;;1.20;99.90;;;;;;4852594;29;20763;-85
2021/01/24 04:13:18;;;;;;;5.37;4.20;;;1.20;99.90;;;;;;4860336;29;20610;-79
2021/01/24 04:15:43;;;;;;;4.72;4.15;;;1.20;99.90;;;;;;4803210;29;1244472;-79
2021/01/24 04:18:09;;;;;;;5.17;4.47;;;1.20;99.90;;;;;;4847658;29;20461;-83
2021/01/24 04:20:35;;;;;;;4.85;4.22;;;1.20;99.90;;;;;;4845889;29;20420;-82
2021/01/24 04:23:01;;;;;;;6.53;4.60;;;1.10;99.90;;;;;;4861762;29;20427;-85
2021/01/24 04:25:26;;;;;;;4.73;4.27;;;1.10;99.90;;;;;;4829872;29;20409;-78
2021/01/24 04:27:52;;;;;;;4.85;4.35;;;1.10;99.90;;;;;;4844669;29;21004;-80
2021/01/24 04:30:18;;;;;;;4.43;4.03;;;1.10;99.90;;;;;;4850503;29;20788;-78
2021/01/24 04:32:43;;;;;;;4.32;3.92;;;1.10;99.90;;;;;;4831875;29;20420;-78
2021/01/24 04:35:10;;;;;;;4.63;3.80;;;1.10;99.90;;;;;;4849859;29;20509;-82
2021/01/24 04:37:36;;;;;;;4.00;3.60;;;1.10;99.90;;;;;;4840589;29;20422;-79
2021/01/24 04:40:01;;;;;;;4.63;3.93;;;1.10;99.90;;;;;;4857679;29;20417;-80
2021/01/24 04:42:27;;;;;;;4.10;3.58;;;1.10;99.90;;;;;;4841417;29;21705;-81
2021/01/24 04:44:54;;;;;;;4.10;3.70;;;1.10;99.90;;;;;;4840056;29;20425;-78
2021/01/24 04:47:20;;;;;;;3.78;3.38;;;1.10;99.90;;;;;;4831100;29;20418;-79
2021/01/24 04:49:46;;;;;;;4.57;4.18;;;1.10;99.90;;;;;;4858808;29;20440;-78
2021/01/24 04:52:12;;;;;;;4.72;3.65;;;1.10;99.90;;;;;;4857642;29;20451;-79
2021/01/24 04:54:37;;;;;;;3.70;3.40;;;1.10;99.90;;;;;;4842700;29;20425;-80
2021/01/24 04:57:03;;;;;;;3.60;3.28;;;1.10;99.90;;;;;;4854086;29;20514;-81
2021/01/24 04:59:29;;;;;;;3.83;3.40;;;1.10;99.90;;;;;;4844372;29;20428;-77
2021/01/24 05:01:55;;;;;;;3.38;3.03;;;1.00;99.90;;;;;;4854645;29;20397;-89
2021/01/24 05:04:21;;;;;;;4.03;3.20;;;1.00;99.90;;;;;;4824749;29;20413;-81
2021/01/24 05:06:46;;;;;;;3.97;3.30;;;1.10;99.90;;;;;;4871292;29;20400;-82
2021/01/24 05:09:12;;;;;;;3.25;2.95;;;1.10;99.90;;;;;;4857969;29;20442;-86
2021/01/24 05:11:38;;;;;;;4.00;3.22;;;1.00;99.90;;;;;;4859404;29;20503;-81
2021/01/24 05:14:17;;;;;;;3.47;3.17;;;1.00;99.90;;;;;;4833176;29;20526;-80
2021/01/24 05:16:43;;;;;;;3.33;3.03;;;0.90;99.90;;;;;;4849957;29;20492;-86
2021/01/24 05:19:09;;;;;;;3.85;3.15;;;1.00;99.90;;;;;;4854027;29;20951;-79
2021/01/24 05:21:38;;;;;;;3.30;3.00;;;0.90;99.90;;;;;;4852757;29;20489;-84
2021/01/24 05:24:10;;;;;;;3.75;3.30;;;0.90;99.90;;;;;;4841399;29;20447;-83
2021/01/24 05:26:43;;;;;;;3.70;3.20;;;1.00;99.90;;;;;;4853875;29;21098;-80
2021/01/24 05:29:41;;;;;;;4.00;3.58;;;0.90;99.90;;;;;;4860104;29;20423;-80
2021/01/24 05:32:07;;;;;;;3.80;3.50;;;1.00;99.90;;;;;;4843437;29;20405;-78
2021/01/24 05:34:33;;;;;;;4.65;3.20;;;1.00;99.90;;;;;;4842702;29;20470;-77
2021/01/24 05:36:59;;;;;;;4.15;3.28;;;1.00;99.90;;;;;;4857338;29;20428;-84
2021/01/24 05:39:27;;;;;;;3.70;3.35;;;0.90;99.90;;;;;;4826354;29;20439;-79
2021/01/24 05:41:54;;;;;;;3.60;3.30;;;0.90;99.90;;;;;;4842169;29;20405;-82
2021/01/24 05:44:21;;;;;;;4.43;3.55;;;0.90;99.90;;;;;;4855045;29;20413;-83
2021/01/24 05:46:46;;;;;;;4.25;3.47;;;0.90;99.90;;;;;;4856319;29;20548;-82
2021/01/24 05:49:14;;;;;;;3.90;3.50;;;0.90;99.90;;;;;;4844218;29;20421;-89
2021/01/24 05:51:39;;;;;;;3.92;3.53;;;0.90;99.90;;;;;;4861067;29;20409;-79
2021/01/24 05:54:05;;;;;;;4.53;4.07;;;1.00;99.90;;;;;;4844155;29;20412;-83
2021/01/24 05:56:31;;;;;;;5.22;4.13;;;1.10;99.90;;;;;;4826609;29;20985;-81
2021/01/24 05:59:00;;;;;;;4.40;4.00;;;1.00;99.90;;;;;;4856748;29;20815;-83
2021/01/24 06:01:27;;;;;;;5.40;4.35;;;0.90;99.90;;;;;;4856411;29;20436;-81
2021/01/24 06:03:57;;;;;;;4.70;4.00;;;0.90;99.90;;;;;;4871923;29;20690;-79
2021/01/24 06:06:22;;;;;;;3.92;3.53;;;0.90;99.90;;;;;;4834909;29;20451;-84
2021/01/24 06:08:48;;;;;;;4.15;3.53;;;0.90;99.90;;;;;;4851281;29;20412;-81
2021/01/24 06:11:17;;;;;;;5.28;4.35;;;0.90;99.90;;;;;;4827053;29;20490;-84
2021/01/24 06:13:51;;;;;;;3.75;3.40;;;0.90;99.90;;;;;;4857412;29;20813;-81
2021/01/24 06:16:39;;;;;;;4.10;3.70;;;0.90;99.90;;;;;;4841618;29;20430;-80
2021/01/24 06:19:05;;;;;;;4.60;3.97;;;0.80;99.90;;;;;;4847446;29;20537;-78
2021/01/24 06:21:37;;;;;;;4.43;4.00;;;0.80;99.90;;;;;;4841485;29;20875;-81
2021/01/24 06:24:09;;;;;;;4.53;3.90;;;0.80;99.90;;;;;;4840814;29;20420;-83
2021/01/24 06:26:41;;;;;;;4.90;4.30;;;0.80;99.90;;;;;;4850909;29;20397;-85
2021/01/24 06:29:08;;;;;;;4.47;4.05;;;0.80;99.90;;;;;;4840194;29;20421;-85
2021/01/24 06:31:33;;;;;;;4.38;3.95;;;0.80;99.90;;;;;;4839889;29;20535;-79
2021/01/24 06:34:08;;;;;;;4.32;3.92;;;0.90;99.90;;;;;;4847083;29;20871;-80
2021/01/24 06:36:37;;;;;;;5.10;4.50;;;0.80;99.90;;;;;;4851460;29;20401;-78
2021/01/24 06:39:03;;;;;;;5.15;4.22;;;0.80;99.90;;;;;;4855197;29;20548;-86
2021/01/24 06:41:45;;;;;;;5.03;4.05;;;0.80;99.90;;;;;;4857396;29;20468;-83
2021/01/24 06:44:43;;;;;;;5.47;4.27;;;0.90;99.90;;;;;;4855849;29;20834;-83
2021/01/24 06:47:33;;;;;;;5.43;4.05;;;0.80;99.90;;;;;;4834383;29;21000;-79
2021/01/24 06:49:59;;;;;;;5.13;4.25;;;0.80;99.90;;;;;;4858131;29;20408;-81
2021/01/24 06:52:24;;;;;;;4.53;4.13;;;0.80;99.90;;;;;;4842191;29;20433;-85
2021/01/24 06:54:50;;;;;;;5.60;4.40;;;0.80;99.90;;;;;;4825509;29;20407;-80
2021/01/24 06:57:16;;;;;;;4.75;4.35;;;0.90;99.90;;;;;;4836529;29;20942;-81
2021/01/24 06:59:42;;;;;;;6.23;4.37;;;0.90;99.90;;;;;;4839511;29;20426;-84
2021/01/24 07:02:22;;;;;;;4.77;4.33;;;0.90;99.90;;;;;;4843012;29;20406;-80
2021/01/24 07:05:09;;;;;;;6.03;4.72;;;0.90;99.90;;;;;;4856949;29;20475;-80
2021/01/24 07:07:41;;;;;;;5.25;4.70;;;0.80;99.90;;;;;;4870159;29;20417;-81
2021/01/24 07:10:09;;;;;;;4.93;4.28;;;0.80;99.90;;;;;;4859154;29;20410;-80
2021/01/24 07:12:35;;;;;;;6.88;4.88;;;0.80;99.90;;;;;;4846074;29;20409;-80
2021/01/24 07:15:03;;;;;;;5.10;4.60;;;0.80;99.90;;;;;;4869287;29;20411;-81
2021/01/24 07:17:29;;;;;;;4.57;4.18;;;0.90;99.90;;;;;;4832117;29;20828;-79
2021/01/24 07:19:54;;;;;;;5.87;4.60;;;0.90;99.90;;;;;;4844568;29;20488;-80
2021/01/24 07:22:21;;;;;;;5.67;4.40;;;0.90;99.90;;;;;;4864046;29;20401;-88
2021/01/24 07:24:47;;;;;;;4.72;4.22;;;0.90;99.90;;;;;;4835635;29;20422;-85
2021/01/24 07:27:17;;;;;;;5.72;4.45;;;0.90;99.90;;;;;;4861897;29;20412;-84
2021/01/24 07:29:43;;;;;;;4.70;4.25;;;0.90;99.90;;;;;;4860911;29;20420;-82
2021/01/24 07:32:11;;;;;;;6.05;4.70;;;1.00;99.90;;;;;;4860243;29;20501;-84
2021/01/24 07:34:36;;;;;;;5.80;4.93;;;1.00;99.90;;;;;;4872538;29;20436;-81
2021/01/24 07:37:04;;;;;;;4.17;3.60;;;1.00;99.90;;;;;;4877496;29;20441;-87
2021/01/24 07:39:30;;;;;;;4.97;4.23;;;0.90;99.90;;;;;;4863739;29;20423;-81
2021/01/24 07:41:56;;;;;;;4.85;4.05;;;0.90;99.90;;;;;;4857975;29;20419;-80
2021/01/24 07:44:22;;;;;;;4.80;4.10;;;0.90;99.90;;;;;;4866068;29;20397;-80
2021/01/24 07:46:47;;;;;;;4.93;4.38;;;0.90;99.90;;;;;;4864931;29;20754;-84
2021/01/24 07:49:13;;;;;;;4.40;4.00;;;0.90;99.90;;;;;;4833234;29;20840;-79
2021/01/24 07:51:39;;;;;;;5.70;3.92;;;0.90;99.90;;;;;;4848784;29;20459;-83
2021/01/24 07:54:05;;;;;;;4.82;4.40;;;0.90;99.90;;;;;;4848064;29;20405;-79
2021/01/24 07:56:30;;;;;;;4.85;4.18;;;0.90;99.90;;;;;;4866896;29;20441;-83
2021/01/24 07:58:56;;;;;;;5.00;4.50;;;0.90;99.90;;;;;;4854882;29;20427;-79
2021/01/24 08:01:22;;;;;;;6.90;4.60;;;0.90;99.90;;;;;;4867092;29;20450;-81
2021/01/24 08:03:48;;;;;;;5.95;4.63;;;0.90;99.90;;;;;;4852940;29;20413;-85
2021/01/24 08:06:14;;;;;;;5.10;4.60;;;0.90;99.90;;;;;;4869800;29;20429;-79
2021/01/24 08:08:41;;;;;;;5.57;4.68;;;0.90;99.90;;;;;;4851495;29;20424;-82
2021/01/24 08:11:07;;;;;;;4.80;4.40;;;0.90;99.90;;;;;;4871012;29;20425;-79
2021/01/24 08:13:33;;;;;;;5.97;4.72;;;1.10;99.90;;;;;;4836980;29;20404;-83
2021/01/24 08:16:00;;;;;;;5.30;4.77;;;1.00;99.90;;;;;;4856700;29;20414;-80
2021/01/24 08:18:27;;;;;;;5.20;4.20;;;1.00;99.90;;;;;;4872164;29;20401;-80
2021/01/24 08:20:52;;;;;;;4.57;4.13;;;1.00;99.90;;;;;;4860408;29;20495;-79
2021/01/24 08:23:19;;;;;;;4.60;3.85;;;1.00;99.90;;;;;;4840324;29;20512;-83
2021/01/24 08:25:44;;;;;;;5.25;3.97;;;1.00;99.90;;;;;;4852793;29;20436;-82
2021/01/24 08:28:10;;;;;;;4.10;3.65;;;1.00;99.90;;;;;;4846189;29;20492;-83
2021/01/24 08:30:39;;;;;;;3.97;3.50;;;1.00;99.90;;;;;;4858018;29;20778;-80
2021/01/24 08:33:07;;;;;;;8.70;6.50;;;1.20;99.90;;;;;;4846072;29;20541;-79
2021/01/24 08:35:34;;;;;;;3.42;3.13;;;1.10;99.90;;;;;;4860698;29;20428;-81
2021/01/24 08:38:00;;;;;;;8.98;6.47;;;1.10;99.90;;;;;;4844800;29;20764;-80
2021/01/24 08:40:30;;;;;;;5.33;4.07;;;1.10;99.90;;;;;;4830508;29;20440;-78
2021/01/24 08:42:56;;;;;;;4.10;3.70;;;1.10;99.90;;;;;;4852745;29;20410;-78
2021/01/24 08:45:27;;;;;;;4.23;3.73;;;1.10;99.90;;;;;;4856480;29;20419;-78
2021/01/24 08:47:54;;;;;;;4.20;3.80;;;1.30;99.90;;;;;;4851160;29;20408;-79
2021/01/24 08:50:20;;;;;;;4.43;3.75;;;1.10;99.90;;;;;;4844865;29;20993;-82
2021/01/24 08:53:02;;;;;;;5.22;4.18;;;1.20;99.90;;;;;;4843337;29;20587;-79
2021/01/24 08:55:27;;;;;;;6.63;4.13;;;1.30;99.90;;;;;;4867847;29;20421;-80
2021/01/24 08:57:53;;;;;;;5.10;4.60;;;1.30;99.90;;;;;;4848683;29;20770;-80
2021/01/24 09:00:20;;;;;;;5.63;4.77;;;1.30;99.90;;;;;;4840470;29;20418;-81
2021/01/24 09:02:46;;;;;;;5.78;4.93;;;1.30;99.90;;;;;;4826926;29;20417;-81
2021/01/24 09:05:14;;;;;;;5.43;4.20;;;1.40;99.90;;;;;;4825959;29;20418;-83
2021/01/24 09:07:43;;;;;;;4.35;3.95;;;1.40;99.90;;;;;;4844526;29;20421;-82
2021/01/24 09:10:27;;;;;;;5.28;4.55;;;1.30;99.90;;;;;;4874926;29;20424;-82
2021/01/24 09:12:57;;;;;;;5.10;4.60;;;1.30;99.90;;;;;;4829431;29;20408;-79
2021/01/24 09:15:23;;;;;;;5.18;4.13;;;1.30;99.90;;;;;;4849391;29;20419;-78
2021/01/24 09:17:49;;;;;;;4.45;3.97;;;1.30;99.90;;;;;;4832966;29;20422;-79
2021/01/24 09:20:18;;;;;;;5.27;4.77;;;1.30;99.90;;;;;;4851894;29;20428;-81
2021/01/24 09:22:44;;;;;;;5.20;4.07;;;1.30;99.90;;;;;;4843548;29;20401;-79
2021/01/24 09:25:10;;;;;;;21.23;15.33;;;1.20;99.90;;;;;;4858302;29;20424;-80
2021/01/24 09:27:36;;;;;;;5.88;4.75;;;1.20;99.90;;;;;;4829670;29;20429;-79
2021/01/24 09:30:04;;;;;;;5.07;4.10;;;1.20;99.90;;;;;;4859055;29;20946;-79
2021/01/24 09:32:30;;;;;;;5.85;4.70;;;1.20;99.90;;;;;;4842450;29;20456;-79
2021/01/24 09:34:55;;;;;;;5.75;4.90;;;1.30;99.90;;;;;;4829336;29;20419;-80
2021/01/24 09:37:21;;;;;;;7.83;6.20;;;1.30;99.90;;;;;;4827649;29;20436;-78
2021/01/24 09:39:47;;;;;;;7.25;5.25;;;1.40;99.90;;;;;;4859327;29;21025;-81
2021/01/24 09:42:12;;;;;;;6.00;5.00;;;1.40;99.90;;;;;;4819409;29;20409;-80
2021/01/24 09:44:38;;;;;;;7.60;5.83;;;1.50;99.90;;;;;;4856891;29;20418;-80
2021/01/24 09:47:04;;;;;;;7.90;7.03;;;1.50;99.90;;;;;;4856179;29;20780;-80
2021/01/24 09:49:30;;;;;;;6.47;5.38;;;1.50;99.90;;;;;;4841446;29;20402;-80
2021/01/24 09:51:55;;;;;;;8.18;6.70;;;1.60;99.90;;;;;;4845495;29;20400;-81
2021/01/24 09:54:22;;;;;;;7.45;5.70;;;1.60;99.90;;;;;;4849072;29;20386;-80
2021/01/24 09:56:48;;;;;;;7.75;6.13;;;1.70;99.90;;;;;;4827685;29;20413;-80
2021/01/24 09:59:15;;;;;;;9.20;6.07;;;1.80;99.90;;;;;;4857431;29;20420;-81
2021/01/24 10:01:42;;;;;;;6.47;5.80;;;1.70;99.90;;;;;;4857494;29;20780;-80
2021/01/24 10:04:08;;;;;;;7.68;6.45;;;1.70;99.90;;;;;;4857634;29;20437;-79
2021/01/24 10:06:35;;;;;;;8.10;6.60;;;1.70;99.90;;;;;;4873883;29;20400;-80
2021/01/24 10:09:01;;;;;;;8.00;6.10;;;1.70;99.90;;;;;;4857702;29;20449;-80
2021/01/24 10:11:28;;;;;;;7.33;5.83;;;1.60;99.90;;;;;;4843413;29;20419;-80
2021/01/24 10:13:54;;;;;;;6.88;5.70;;;1.60;99.90;;;;;;4859589;29;20448;-78
2021/01/24 10:16:20;;;;;;;8.73;6.03;;;1.70;99.90;;;;;;4843012;29;20504;-82
2021/01/24 10:18:47;;;;;;;6.50;5.28;;;1.70;99.90;;;;;;4857468;29;20441;-79
2021/01/24 10:21:13;;;;;;;7.97;5.90;;;1.80;99.90;;;;;;4843527;29;20432;-81
2021/01/24 10:23:39;;;;;;;7.32;5.88;;;1.70;99.90;;;;;;4873151;29;20414;-80
2021/01/24 10:26:05;;;;;;;7.95;5.82;;;1.70;99.90;;;;;;4842546;29;20409;-80
2021/01/24 10:28:31;;;;;;;9.13;6.15;;;1.70;99.90;;;;;;4858997;29;20479;-79
2021/01/24 10:30:57;;;;;;;7.07;5.63;;;1.70;99.90;;;;;;4842001;29;20415;-80
2021/01/24 10:33:24;;;;;;;6.87;5.20;;;1.70;99.90;;;;;;4858497;29;20801;-80
2021/01/24 10:35:50;;;;;;;9.93;5.72;;;1.60;99.90;;;;;;4825807;29;20498;-80
2021/01/24 10:38:16;;;;;;;29.35;20.00;;;1.70;99.90;;;;;;4826175;29;20414;-81
2021/01/24 10:40:43;;;;;;;8.35;6.22;;;1.70;99.90;;;;;;4825300;29;20448;-80
2021/01/24 10:43:09;;;;;;;8.43;6.22;;;1.70;99.90;;;;;;4831538;29;20409;-80
2021/01/24 10:45:35;;;;;;;8.82;6.53;;;1.60;99.90;;;;;;4831108;29;20416;-80
2021/01/24 10:48:02;;;;;;;9.27;6.82;;;1.70;99.90;;;;;;4832986;29;20401;-80
2021/01/24 10:50:28;;;;;;;8.02;5.75;;;1.70;99.90;;;;;;4847005;29;20412;-81
2021/01/24 10:52:54;;;;;;;7.82;5.85;;;1.80;99.90;;;;;;4845716;29;20416;-80
2021/01/24 10:55:21;;;;;;;8.93;5.57;;;1.70;99.90;;;;;;4831515;29;20404;-80
2021/01/24 10:57:50;;;;;;;7.78;5.15;;;1.70;99.90;;;;;;4846825;29;20468;-79
2021/01/24 11:00:17;;;;;;;8.48;6.63;;;1.90;99.90;;;;;;4845556;29;20921;-79
2021/01/24 11:02:44;;;;;;;10.70;6.50;;;1.90;99.90;;;;;;4863338;29;20496;-81
2021/01/24 11:16:46;;;;;;;8.07;6.35;;;1.90;99.90;;;;;;4876678;29;20431;-82
2021/01/24 11:20:23;;;;;;;7.97;6.30;;;2.00;99.90;;;;;;4846838;29;20440;-87
2021/01/24 11:23:06;;;;;;;12.15;7.53;;;1.90;99.90;;;;;;4875257;29;20585;-84
2021/01/24 11:25:39;;;;;;;8.52;7.10;;;1.70;99.90;;;;;;4869590;29;20485;-82
2021/01/24 11:28:17;;;;;;;8.27;6.28;;;1.90;99.90;;;;;;4864287;29;20431;-81
2021/01/24 11:30:58;;;;;;;8.37;6.70;;;1.90;99.90;;;;;;4845003;29;20467;-81
2021/01/24 11:39:58;;;;;;;9.43;7.07;;;1.90;99.90;;;;;;4873267;29;20428;-79
2021/01/24 11:42:37;;;;;;;9.68;7.10;;;1.90;99.90;;;;;;4867764;29;20419;-80
2021/01/24 11:45:35;;;;;;;8.50;6.87;;;1.90;99.90;;;;;;4846335;29;20473;-81
2021/01/24 11:48:07;;;;;;;8.82;6.80;;;1.90;99.90;;;;;;4847850;29;20780;-80
2021/01/24 11:50:41;;;;;;;9.35;6.60;;;1.80;99.90;;;;;;4882377;29;20445;-82
2021/01/24 11:53:20;;;;;;;9.48;7.13;;;1.80;99.90;;;;;;4875869;29;20409;-83
2021/01/24 11:55:52;;;;;;;10.38;7.05;;;1.80;99.90;;;;;;4893235;29;20541;-81
2021/01/24 11:58:21;;;;;;;8.82;6.82;;;1.80;99.90;;;;;;4845900;29;20467;-80
2021/01/24 12:00:52;;;;;;;9.30;7.05;;;1.70;99.90;;;;;;4848915;29;20433;-83
2021/01/24 12:03:23;;;;;;;11.43;6.50;;;1.80;99.90;;;;;;4838382;29;20449;-80
2021/01/24 12:05:53;;;;;;;8.55;6.40;;;1.80;99.90;;;;;;4868156;29;21032;-82
2021/01/24 12:08:27;;;;;;;9.80;6.82;;;1.70;99.90;;;;;;4858407;29;20943;-83
2021/01/24 12:11:11;;;;;;;7.65;6.28;;;1.80;99.90;;;;;;4874219;29;20446;-81
2021/01/24 12:13:56;;;;;;;9.05;5.50;;;1.80;99.90;;;;;;4819017;29;20423;-78
2021/01/24 12:17:08;;;;;;;8.18;6.22;;;1.90;99.90;;;;;;4818129;29;20469;-80
2021/01/24 12:20:01;;;;;;;9.43;6.82;;;1.90;99.90;;;;;;4845223;29;20428;-79
2021/01/24 12:22:40;;;;;;;6.63;5.70;;;1.90;99.90;;;;;;4855154;29;20444;-81
2021/01/24 12:25:18;;;;;;;8.80;6.32;;;2.00;99.90;;;;;;4849427;29;20902;-80
2021/01/24 12:28:07;;;;;;;7.88;6.47;;;2.00;99.90;;;;;;4862448;29;20423;-81
2021/01/24 12:30:34;;;;;;;7.88;6.22;;;2.00;99.90;;;;;;4835856;29;20487;-81
2021/01/24 12:33:01;;;;;;;9.00;6.70;;;2.00;99.90;;;;;;4840906;29;20404;-81
2021/01/24 12:35:27;;;;;;;7.70;6.10;;;2.00;99.90;;;;;;4848036;29;20992;-80
2021/01/24 12:37:54;;;;;;;9.32;6.40;;;2.00;99.90;;;;;;4849876;29;20407;-80
2021/01/24 12:40:20;;;;;;;8.37;6.80;;;2.00;99.90;;;;;;4847568;29;20435;-79
2021/01/24 12:43:02;;;;;;;8.35;6.82;;;2.00;99.90;;;;;;4819212;29;20426;-79
2021/01/24 12:45:51;;;;;;;8.10;6.10;;;2.10;99.90;;;;;;4802875;29;20474;-79
2021/01/24 12:48:51;;;;;;;9.55;7.38;;;2.10;99.90;;;;;;4845216;29;20428;-80
2021/01/24 12:52:01;;;;;;;7.20;6.07;;;2.00;99.90;;;;;;4838878;29;20796;-79
2021/01/24 12:54:56;;;;;;;14.63;10.50;;;2.10;99.90;;;;;;4834128;29;20426;-79
2021/01/24 12:58:18;;;;;;;9.15;6.93;;;2.10;99.90;;;;;;4829544;29;20415;-79
2021/01/24 13:01:30;;;;;;;8.38;6.60;;;2.20;99.90;;;;;;4804813;29;20427;-80
2021/01/24 13:04:58;;;;;;;14.07;11.05;;;2.20;99.90;;;;;;4812084;29;20472;-79
2021/01/24 13:08:04;;;;;;;8.60;6.63;;;2.10;99.90;;;;;;4847793;29;20436;-81
2021/01/24 13:10:58;;;;;;;10.20;7.30;;;2.10;99.90;;;;;;4835179;29;20446;-79
2021/01/24 13:14:26;;;;;;;10.05;7.15;;;2.10;99.90;;;;;;4834847;29;20413;-79
2021/01/24 13:17:49;;;;;;;10.30;7.57;;;2.10;99.90;;;;;;4807174;29;20784;-79
2021/01/24 13:20:39;;;;;;;10.45;6.53;;;2.10;99.90;;;;;;4838209;29;20774;-79
2021/01/24 13:23:52;;;;;;;8.73;6.65;;;2.10;99.90;;;;;;4843201;29;20417;-79
2021/01/24 13:26:50;;;;;;;8.60;6.50;;;2.10;99.90;;;;;;4805067;29;20451;-79
2021/01/24 13:30:25;;;;;;;9.35;6.63;;;2.20;99.90;;;;;;4850856;29;20511;-79
2021/01/24 13:33:50;;;;;;;8.60;6.70;;;2.30;99.90;;;;;;4814292;29;20436;-79